createdAt,value
2022-12-11T00:01:21.378Z,100.00
2022-12-11T00:06:24.453Z,100.00
2022-12-11T00:11:27.234Z,100.00
2022-12-11T00:16:29.698Z,100.00
2022-12-11T00:21:32.203Z,100.00
2022-12-11T00:26:34.989Z,100.00
2022-12-11T00:31:37.576Z,100.00
2022-12-11T00:36:40.203Z,100.00
2022-12-11T00:41:42.609Z,100.00
2022-12-11T00:46:45.130Z,100.00
2022-12-11T00:51:47.512Z,100.00
2022-12-11T00:56:50.862Z,100.00
2022-12-11T01:01:53.236Z,100.00
2022-12-11T01:06:55.617Z,100.00
2022-12-11T01:11:58.018Z,100.00
2022-12-11T01:17:00.543Z,100.00
2022-12-11T01:22:03.129Z,100.00
2022-12-11T01:27:05.672Z,100.00
2022-12-11T01:32:08.184Z,100.00
2022-12-11T01:37:10.647Z,100.00
2022-12-11T01:42:19.020Z,100.00
2022-12-11T01:47:21.461Z,100.00
2022-12-11T01:52:24.046Z,92.81
2022-12-11T01:57:26.458Z,94.35
2022-12-11T02:02:31.549Z,100.00
2022-12-11T02:07:44.879Z,100.00
2022-12-11T02:12:57.848Z,100.00
2022-12-11T02:18:06.290Z,100.00
2022-12-11T02:23:23.254Z,100.00
2022-12-11T02:28:37.691Z,100.00
2022-12-11T02:33:58.356Z,100.00
2022-12-11T02:39:03.647Z,100.00
2022-12-11T02:44:06.910Z,100.00
2022-12-11T02:49:12.138Z,100.00
2022-12-11T02:54:25.131Z,100.00
2022-12-11T02:59:37.064Z,100.00
2022-12-11T03:04:40.611Z,100.00
2022-12-11T03:09:45.123Z,100.00
2022-12-11T03:14:48.986Z,100.00
2022-12-11T03:20:02.086Z,100.00
2022-12-11T03:25:20.199Z,100.00
2022-12-11T03:30:24.351Z,100.00
2022-12-11T03:35:40.017Z,100.00
2022-12-11T03:40:46.210Z,100.00
2022-12-11T03:45:50.746Z,100.00
2022-12-11T03:50:53.650Z,100.00
2022-12-11T03:55:59.169Z,100.00
2022-12-11T04:01:01.599Z,100.00
2022-12-11T04:06:04.351Z,100.00
2022-12-11T04:11:25.635Z,100.00
2022-12-11T04:16:28.038Z,99.58
2022-12-11T04:21:49.049Z,100.00
2022-12-11T04:26:51.617Z,100.00
2022-12-11T04:31:54.301Z,100.00
2022-12-11T04:36:56.742Z,100.00
2022-12-11T04:41:59.144Z,100.00
2022-12-11T04:47:01.583Z,100.00
2022-12-11T04:52:04.564Z,100.00
2022-12-11T04:57:07.347Z,100.00
2022-12-11T05:02:09.763Z,100.00
2022-12-11T05:07:12.197Z,100.00
2022-12-11T05:12:14.836Z,100.00
2022-12-11T05:17:17.465Z,100.00
2022-12-11T05:22:19.961Z,100.00
2022-12-11T05:27:22.354Z,100.00
2022-12-11T05:32:24.900Z,100.00
2022-12-11T05:37:27.528Z,100.00
2022-12-11T05:42:29.894Z,100.00
2022-12-11T05:47:32.485Z,100.00
2022-12-11T05:52:35.368Z,100.00
2022-12-11T05:57:38.023Z,100.00
2022-12-11T06:02:40.553Z,100.00
2022-12-11T06:07:43.326Z,100.00
2022-12-11T06:12:45.847Z,100.00
2022-12-11T06:17:51.243Z,100.00
2022-12-11T06:22:53.775Z,100.00
2022-12-11T06:27:56.664Z,100.00
2022-12-11T06:32:59.666Z,100.00
2022-12-11T06:38:02.101Z,100.00
2022-12-11T06:43:05.024Z,100.00
2022-12-11T06:48:07.792Z,100.00
2022-12-11T06:53:12.487Z,100.00
2022-12-11T06:58:15.215Z,100.00
2022-12-11T07:03:17.793Z,100.00
2022-12-11T07:08:20.267Z,100.00
2022-12-11T07:13:22.717Z,100.00
2022-12-11T07:18:25.115Z,100.00
2022-12-11T07:23:28.820Z,100.00
2022-12-11T07:28:31.247Z,100.00
2022-12-11T07:33:34.119Z,100.00
2022-12-11T07:38:37.667Z,100.00
2022-12-11T07:43:40.712Z,100.00
2022-12-11T07:48:44.922Z,100.00
2022-12-11T07:53:51.130Z,100.00
2022-12-11T07:58:53.900Z,100.00
2022-12-11T08:03:56.914Z,100.00
2022-12-11T08:09:01.403Z,100.00
2022-12-11T08:14:06.034Z,100.00
2022-12-11T08:19:08.754Z,100.00
2022-12-11T08:24:11.905Z,100.00
2022-12-11T08:29:15.064Z,100.00
2022-12-11T08:34:17.501Z,100.00
2022-12-11T08:39:19.870Z,100.00
2022-12-11T08:44:25.069Z,100.00
2022-12-11T08:49:32.738Z,100.00
2022-12-11T08:54:38.318Z,100.00
2022-12-11T08:59:40.966Z,100.00
2022-12-11T09:04:43.451Z,100.00
2022-12-11T09:09:45.891Z,100.00
2022-12-11T09:14:48.286Z,100.00
2022-12-11T09:19:50.711Z,100.00
2022-12-11T09:24:53.213Z,100.00
2022-12-11T09:29:55.655Z,92.27
2022-12-11T09:34:58.032Z,93.84
2022-12-11T09:40:05.771Z,94.94
2022-12-11T09:45:15.352Z,90.93
2022-12-11T09:50:23.014Z,86.75
2022-12-11T09:55:29.854Z,87.70
2022-12-11T10:00:45.663Z,92.57
2022-12-11T10:06:15.179Z,97.01
2022-12-11T10:11:36.535Z,96.90
2022-12-11T10:16:51.076Z,99.67
2022-12-11T10:21:54.809Z,99.76
2022-12-11T10:27:02.169Z,98.87
2022-12-11T10:32:11.906Z,96.93
2022-12-11T10:37:15.684Z,93.73
2022-12-11T10:42:22.024Z,97.57
2022-12-11T10:47:24.501Z,96.89
2022-12-11T10:52:31.690Z,94.79
2022-12-11T10:57:39.272Z,100.00
2022-12-11T11:02:45.330Z,100.00
2022-12-11T11:07:47.952Z,100.00
2022-12-11T11:12:59.834Z,100.00
2022-12-11T11:18:12.774Z,99.00
2022-12-11T11:23:18.649Z,100.00
2022-12-11T11:28:37.900Z,98.60
2022-12-11T11:33:59.011Z,100.00
2022-12-11T11:39:12.364Z,98.03
2022-12-11T11:44:37.066Z,100.00
2022-12-11T11:50:06.376Z,100.00
2022-12-11T11:55:20.265Z,100.00
2022-12-11T12:00:33.306Z,100.00
2022-12-11T12:05:50.422Z,100.00
2022-12-11T12:11:20.243Z,100.00
2022-12-11T12:17:06.761Z,100.00
2022-12-11T12:22:18.033Z,100.00
2022-12-11T12:33:31.343Z,100.00
2022-12-11T12:38:42.679Z,100.00
2022-12-11T12:43:54.130Z,100.00
2022-12-11T12:48:58.915Z,100.00
2022-12-11T12:54:09.138Z,99.31
2022-12-11T12:59:26.507Z,92.60
2022-12-11T13:04:59.428Z,98.23
2022-12-11T13:10:23.134Z,99.26
2022-12-11T13:15:39.089Z,99.68
2022-12-11T13:20:51.122Z,100.00
2022-12-11T13:25:59.598Z,100.00
2022-12-11T13:31:08.354Z,99.08
2022-12-11T13:36:16.683Z,100.00
2022-12-11T13:41:20.871Z,100.00
2022-12-11T13:46:29.356Z,100.00
2022-12-11T13:51:35.374Z,100.00
2022-12-11T13:56:38.217Z,100.00
2022-12-11T14:01:40.777Z,100.00
2022-12-11T14:06:43.631Z,100.00
2022-12-11T14:11:52.152Z,100.00
2022-12-11T14:16:57.749Z,100.00
2022-12-11T14:22:07.230Z,100.00
2022-12-11T14:27:18.763Z,100.00
2022-12-11T14:32:36.991Z,100.00
2022-12-11T14:37:40.373Z,100.00
2022-12-11T14:43:00.280Z,100.00
2022-12-11T14:48:16.443Z,100.00
2022-12-11T14:53:24.457Z,100.00
2022-12-11T14:58:27.897Z,100.00
2022-12-11T15:03:36.781Z,100.00
2022-12-11T15:08:39.558Z,100.00
2022-12-11T15:14:00.325Z,100.00
2022-12-11T15:19:02.965Z,100.00
2022-12-11T15:24:07.228Z,100.00
2022-12-11T15:29:36.059Z,100.00
2022-12-11T15:34:50.100Z,100.00
2022-12-11T15:39:54.521Z,100.00
2022-12-11T15:44:57.557Z,100.00
2022-12-11T15:50:19.532Z,100.00
2022-12-11T15:55:24.116Z,100.00
2022-12-11T16:00:29.818Z,100.00
2022-12-11T16:05:32.253Z,95.23
2022-12-11T16:10:35.003Z,100.00
2022-12-11T16:15:42.847Z,100.00
2022-12-11T16:20:46.687Z,100.00
2022-12-11T16:25:49.864Z,100.00
2022-12-11T16:30:52.377Z,100.00
2022-12-11T16:35:54.805Z,100.00
2022-12-11T16:41:01.299Z,100.00
2022-12-11T16:46:03.948Z,100.00
2022-12-11T16:51:06.913Z,100.00
2022-12-11T16:56:09.886Z,100.00
2022-12-11T17:01:13.351Z,100.00
2022-12-11T17:06:17.824Z,100.00
2022-12-11T17:11:22.249Z,100.00
2022-12-11T17:16:29.005Z,100.00
2022-12-11T17:21:31.485Z,100.00
2022-12-11T17:26:35.227Z,100.00
2022-12-11T17:31:38.337Z,100.00
2022-12-11T17:36:40.853Z,100.00
2022-12-11T17:41:43.519Z,100.00
2022-12-11T17:46:46.223Z,100.00
2022-12-11T17:51:48.840Z,100.00
2022-12-11T17:56:51.430Z,100.00
2022-12-11T18:01:54.257Z,100.00
2022-12-11T18:06:56.819Z,100.00
2022-12-11T18:11:59.279Z,100.00
2022-12-11T18:17:01.998Z,100.00
2022-12-11T18:22:04.864Z,100.00
2022-12-11T18:27:10.993Z,100.00
2022-12-11T18:32:13.427Z,100.00
2022-12-11T18:37:15.972Z,100.00
2022-12-11T18:42:34.054Z,100.00
2022-12-11T18:47:37.606Z,100.00
2022-12-11T18:52:40.203Z,100.00
2022-12-11T18:57:42.751Z,100.00
2022-12-11T19:02:45.355Z,100.00
2022-12-11T19:07:48.082Z,100.00
2022-12-11T19:12:50.536Z,100.00
2022-12-11T19:17:52.939Z,100.00
2022-12-11T19:22:55.351Z,100.00
2022-12-11T19:27:58.086Z,100.00
2022-12-11T19:33:00.527Z,100.00
2022-12-11T19:38:03.202Z,100.00
2022-12-11T19:43:06.028Z,100.00
2022-12-11T19:48:08.832Z,100.00
2022-12-11T19:53:11.273Z,100.00
2022-12-11T19:58:13.778Z,100.00
2022-12-11T20:03:16.223Z,100.00
2022-12-11T20:08:43.684Z,100.00
2022-12-11T20:13:41.338Z,100.00
2022-12-11T20:18:44.331Z,100.00
2022-12-11T20:23:47.595Z,100.00
2022-12-11T20:28:51.685Z,100.00
2022-12-11T20:33:55.813Z,100.00
2022-12-11T20:38:58.563Z,100.00
2022-12-11T20:44:01.390Z,100.00
2022-12-11T20:49:04.040Z,100.00
2022-12-11T20:54:07.131Z,100.00
2022-12-11T20:59:10.665Z,100.00
2022-12-11T21:04:13.181Z,100.00
2022-12-11T21:09:19.606Z,100.00
2022-12-11T21:14:22.693Z,100.00
2022-12-11T21:19:26.021Z,100.00
2022-12-11T21:24:29.773Z,100.00
2022-12-11T21:29:32.506Z,100.00
2022-12-11T21:34:35.363Z,100.00
2022-12-11T21:39:39.585Z,100.00
2022-12-11T21:45:44.340Z,100.00
2022-12-11T21:50:05.162Z,100.00
2022-12-11T21:55:08.583Z,100.00
2022-12-11T22:00:11.855Z,100.00
2022-12-11T22:05:17.702Z,100.00
2022-12-11T22:10:20.154Z,100.00
2022-12-11T22:15:22.683Z,100.00
2022-12-11T22:20:25.173Z,100.00
2022-12-11T22:25:28.983Z,100.00
2022-12-11T22:30:32.041Z,100.00
2022-12-11T22:35:34.852Z,100.00
2022-12-11T22:40:41.388Z,100.00
2022-12-11T22:45:43.864Z,100.00
2022-12-11T22:50:46.313Z,100.00
2022-12-11T22:55:48.960Z,100.00
2022-12-11T23:00:51.371Z,100.00
2022-12-11T23:05:53.998Z,100.00
2022-12-11T23:10:57.073Z,100.00
2022-12-11T23:15:59.438Z,96.51
2022-12-11T23:21:02.517Z,100.00
2022-12-11T23:26:06.752Z,100.00
2022-12-11T23:31:10.190Z,100.00
2022-12-11T23:36:13.431Z,100.00
2022-12-11T23:41:16.061Z,100.00
2022-12-11T23:46:22.963Z,100.00
2022-12-11T23:51:26.862Z,100.00
2022-12-11T23:56:30.260Z,100.00
